createdAt,value
2023-01-26T00:00:12.149Z,15.02
2023-01-26T00:02:41.276Z,15.23
2023-01-26T00:05:10.375Z,17.33
2023-01-26T00:07:42.634Z,16.05
2023-01-26T00:10:11.378Z,15.35
2023-01-26T00:12:40.239Z,15.15
2023-01-26T00:15:09.243Z,15.68
2023-01-26T00:17:38.320Z,16.17
2023-01-26T00:20:06.607Z,14.57
2023-01-26T00:22:35.079Z,15.23
2023-01-26T00:25:04.566Z,14.70
2023-01-26T00:27:33.873Z,14.93
2023-01-26T00:30:04.266Z,14.48
2023-01-26T00:32:36.208Z,13.63
2023-01-26T00:35:05.792Z,15.25
2023-01-26T00:37:35.419Z,14.07
2023-01-26T00:40:03.824Z,13.68
2023-01-26T00:42:32.348Z,12.88
2023-01-26T00:45:01.013Z,12.98
2023-01-26T00:47:29.959Z,13.15
2023-01-26T00:49:58.879Z,12.48
2023-01-26T00:52:27.639Z,12.50
2023-01-26T00:54:55.483Z,14.57
2023-01-26T00:57:25.155Z,14.95
2023-01-26T00:59:56.334Z,14.07
2023-01-26T01:02:24.435Z,14.40
2023-01-26T01:04:52.356Z,15.27
2023-01-26T01:07:20.747Z,15.10
2023-01-26T01:09:49.732Z,15.00
2023-01-26T01:12:18.547Z,15.13
2023-01-26T01:14:48.954Z,15.02
2023-01-26T01:17:19.788Z,14.70
2023-01-26T01:19:51.630Z,13.45
2023-01-26T01:22:20.035Z,13.18
2023-01-26T01:24:48.802Z,12.32
2023-01-26T01:27:17.301Z,12.75
2023-01-26T01:29:45.994Z,12.18
2023-01-26T01:32:14.710Z,11.95
2023-01-26T01:34:43.005Z,14.05
2023-01-26T01:37:11.812Z,12.43
2023-01-26T01:39:42.061Z,13.60
2023-01-26T01:42:10.656Z,11.90
2023-01-26T01:44:42.959Z,10.80
2023-01-26T01:47:26.649Z,11.48
2023-01-26T01:49:55.457Z,12.15
2023-01-26T01:52:31.443Z,13.48
2023-01-26T01:55:09.265Z,10.05
2023-01-26T01:57:53.635Z,11.60
2023-01-26T02:00:24.093Z,11.32
2023-01-26T02:05:32.739Z,10.88
2023-01-26T02:08:03.644Z,10.63
2023-01-26T02:10:32.874Z,10.50
2023-01-26T02:13:02.964Z,12.70
2023-01-26T02:15:31.255Z,13.40
2023-01-26T02:18:03.308Z,12.75
2023-01-26T02:20:57.747Z,12.73
2023-01-26T02:23:31.401Z,12.80
2023-01-26T02:26:06.132Z,11.70
2023-01-26T02:28:35.370Z,12.77
2023-01-26T02:31:04.137Z,11.07
2023-01-26T02:33:34.144Z,13.85
2023-01-26T02:36:05.703Z,11.82
2023-01-26T02:38:44.995Z,11.50
2023-01-26T02:41:39.686Z,11.45
2023-01-26T02:44:11.878Z,10.95
2023-01-26T02:46:44.043Z,12.00
2023-01-26T02:49:31.354Z,11.23
2023-01-26T02:52:00.169Z,12.55
2023-01-26T02:54:46.929Z,11.95
2023-01-26T02:57:17.172Z,11.75
2023-01-26T02:59:44.834Z,11.38
2023-01-26T03:02:13.098Z,11.98
2023-01-26T03:04:42.725Z,11.73
2023-01-26T03:07:11.535Z,12.75
2023-01-26T03:09:40.288Z,11.98
2023-01-26T03:12:09.059Z,12.73
2023-01-26T03:14:37.584Z,12.50
2023-01-26T03:17:07.040Z,13.50
2023-01-26T03:19:53.301Z,14.00
2023-01-26T03:22:41.076Z,11.80
2023-01-26T03:25:28.587Z,13.15
2023-01-26T03:27:59.435Z,13.68
2023-01-26T03:30:31.221Z,12.75
2023-01-26T03:33:02.987Z,12.95
2023-01-26T03:35:35.678Z,14.32
2023-01-26T03:38:07.268Z,13.85
2023-01-26T03:40:55.685Z,12.65
2023-01-26T03:43:45.268Z,13.02
2023-01-26T03:46:33.292Z,13.00
2023-01-26T03:49:22.762Z,12.43
2023-01-26T03:52:13.324Z,11.93
2023-01-26T03:55:03.709Z,14.05
2023-01-26T03:57:34.324Z,11.73
2023-01-26T04:00:08.371Z,11.52
2023-01-26T04:02:58.630Z,12.70
2023-01-26T04:06:15.735Z,11.23
2023-01-26T04:08:47.336Z,12.27
2023-01-26T04:11:16.132Z,13.50
2023-01-26T04:14:04.624Z,13.85
2023-01-26T04:16:51.609Z,13.00
2023-01-26T04:19:38.262Z,13.40
2023-01-26T04:22:06.312Z,12.55
2023-01-26T04:24:34.322Z,11.73
2023-01-26T04:27:02.661Z,12.43
2023-01-26T04:29:30.489Z,11.63
2023-01-26T04:31:59.265Z,12.50
2023-01-26T04:34:27.744Z,12.10
2023-01-26T04:36:56.773Z,12.27
2023-01-26T04:39:25.278Z,11.75
2023-01-26T04:41:53.678Z,13.50
2023-01-26T04:44:22.547Z,12.40
2023-01-26T04:46:50.776Z,11.18
2023-01-26T04:49:19.636Z,11.57
2023-01-26T04:51:49.080Z,10.43
2023-01-26T04:54:20.023Z,10.85
2023-01-26T04:56:49.219Z,9.88
2023-01-26T04:59:17.913Z,11.32
2023-01-26T05:01:47.688Z,12.90
2023-01-26T05:04:16.514Z,12.88
2023-01-26T05:06:44.855Z,13.18
2023-01-26T05:09:12.992Z,12.35
2023-01-26T05:11:41.010Z,12.07
2023-01-26T05:14:09.356Z,10.25
2023-01-26T05:16:38.020Z,10.70
2023-01-26T05:19:06.358Z,12.27
2023-01-26T05:21:34.383Z,9.43
2023-01-26T05:24:02.549Z,9.88
2023-01-26T05:26:31.183Z,11.35
2023-01-26T05:29:00.269Z,12.20
2023-01-26T05:31:32.417Z,11.80
2023-01-26T05:34:00.668Z,10.25
2023-01-26T05:36:29.020Z,11.80
2023-01-26T05:38:58.819Z,9.65
2023-01-26T05:41:26.888Z,10.15
2023-01-26T05:43:55.357Z,10.85
2023-01-26T05:46:23.404Z,13.25
2023-01-26T05:48:52.860Z,12.13
2023-01-26T05:51:21.193Z,12.50
2023-01-26T05:53:49.655Z,11.02
2023-01-26T05:56:18.352Z,11.43
2023-01-26T05:58:47.287Z,10.40
2023-01-26T06:01:15.432Z,10.88
2023-01-26T06:03:43.547Z,11.05
2023-01-26T06:06:12.126Z,10.73
2023-01-26T06:08:40.254Z,10.45
2023-01-26T06:11:09.478Z,11.25
2023-01-26T06:13:39.594Z,10.57
2023-01-26T06:16:08.637Z,11.18
2023-01-26T06:21:04.334Z,9.98
2023-01-26T06:23:33.318Z,10.30
2023-01-26T06:26:02.625Z,10.63
2023-01-26T06:28:31.148Z,10.13
2023-01-26T06:31:06.213Z,9.23
2023-01-26T06:33:36.547Z,9.23
2023-01-26T06:36:07.642Z,9.93
2023-01-26T06:38:36.233Z,10.82
2023-01-26T06:41:09.646Z,9.85
2023-01-26T06:43:45.661Z,9.30
2023-01-26T06:46:18.987Z,9.68
2023-01-26T06:48:50.499Z,9.15
2023-01-26T06:51:38.775Z,11.63
2023-01-26T06:54:10.932Z,10.38
2023-01-26T06:56:40.832Z,9.75
2023-01-26T06:59:10.832Z,9.40
2023-01-26T07:01:42.633Z,10.40
2023-01-26T07:04:11.572Z,9.70
2023-01-26T07:06:40.628Z,8.95
2023-01-26T07:09:11.132Z,10.93
2023-01-26T07:11:39.186Z,10.65
2023-01-26T07:14:08.770Z,10.27
2023-01-26T07:16:37.879Z,10.60
2023-01-26T07:19:07.991Z,9.68
2023-01-26T07:21:39.061Z,8.93
2023-01-26T07:24:10.007Z,9.25
2023-01-26T07:26:41.509Z,10.32
2023-01-26T07:29:13.076Z,9.48
2023-01-26T07:31:41.925Z,9.27
2023-01-26T07:34:11.719Z,9.77
2023-01-26T07:36:40.154Z,9.77
2023-01-26T07:39:08.895Z,11.30
2023-01-26T07:41:37.099Z,10.27
2023-01-26T07:44:09.107Z,11.32
2023-01-26T07:46:40.034Z,11.15
2023-01-26T07:49:08.418Z,10.93
2023-01-26T07:51:36.862Z,9.25
2023-01-26T07:54:06.750Z,10.18
2023-01-26T07:56:36.612Z,11.27
2023-01-26T07:59:05.129Z,12.65
2023-01-26T08:01:33.157Z,20.80
2023-01-26T08:04:01.370Z,22.25
2023-01-26T08:06:29.906Z,16.67
2023-01-26T08:08:58.249Z,19.35
2023-01-26T08:11:27.556Z,9.90
2023-01-26T08:13:56.113Z,11.52
2023-01-26T08:16:25.672Z,11.30
2023-01-26T08:18:53.999Z,14.20
2023-01-26T08:21:23.476Z,12.95
2023-01-26T08:23:54.180Z,10.73
2023-01-26T08:26:22.791Z,10.02
2023-01-26T08:28:50.997Z,10.48
2023-01-26T08:31:20.902Z,9.00
2023-01-26T08:33:51.487Z,8.60
2023-01-26T08:36:23.135Z,9.60
2023-01-26T08:38:52.630Z,8.57
2023-01-26T08:41:20.866Z,9.95
2023-01-26T08:43:49.311Z,9.68
2023-01-26T08:46:17.283Z,8.77
2023-01-26T08:48:46.953Z,8.80
2023-01-26T08:51:15.186Z,9.00
2023-01-26T08:53:43.294Z,8.93
2023-01-26T08:56:13.034Z,8.75
2023-01-26T08:58:49.992Z,9.50
2023-01-26T09:01:18.801Z,7.47
2023-01-26T09:03:47.409Z,8.98
2023-01-26T09:06:15.884Z,8.50
2023-01-26T09:08:45.903Z,10.07
2023-01-26T09:11:14.675Z,9.70
2023-01-26T09:13:42.447Z,9.43
2023-01-26T09:16:20.264Z,9.40
2023-01-26T09:18:53.497Z,9.00
2023-01-26T09:21:24.811Z,9.32
2023-01-26T09:23:52.954Z,9.88
2023-01-26T09:26:22.611Z,9.23
2023-01-26T09:28:52.484Z,8.70
2023-01-26T09:31:20.837Z,8.80
2023-01-26T09:33:50.820Z,8.80
2023-01-26T09:36:19.515Z,8.65
2023-01-26T09:38:48.168Z,9.73
2023-01-26T09:41:43.257Z,9.43
2023-01-26T09:44:19.429Z,8.30
2023-01-26T09:47:12.991Z,9.13
2023-01-26T09:49:43.755Z,8.32
2023-01-26T09:52:31.021Z,9.30
2023-01-26T09:55:09.877Z,8.75
2023-01-26T09:57:53.284Z,9.10
2023-01-26T10:00:41.896Z,8.02
2023-01-26T10:06:22.819Z,8.60
2023-01-26T10:08:50.827Z,8.38
2023-01-26T10:11:26.104Z,8.73
2023-01-26T10:14:04.373Z,8.15
2023-01-26T10:16:34.838Z,8.65
2023-01-26T10:19:07.201Z,8.35
2023-01-26T10:21:41.285Z,8.88
2023-01-26T10:24:12.062Z,9.20
2023-01-26T10:26:41.145Z,9.25
2023-01-26T10:29:16.349Z,9.25
2023-01-26T10:31:45.748Z,8.25
2023-01-26T10:34:21.322Z,8.80
2023-01-26T10:36:50.275Z,7.72
2023-01-26T10:39:18.763Z,8.00
2023-01-26T10:41:59.147Z,9.35
2023-01-26T10:44:36.473Z,7.88
2023-01-26T10:47:18.587Z,7.57
2023-01-26T10:49:47.960Z,6.93
2023-01-26T10:52:22.410Z,6.75
2023-01-26T10:55:12.779Z,7.72
2023-01-26T10:57:45.996Z,7.78
2023-01-26T11:00:17.798Z,7.47
2023-01-26T11:02:53.306Z,7.60
2023-01-26T11:05:26.680Z,8.20
2023-01-26T11:08:00.345Z,7.35
2023-01-26T11:10:34.948Z,7.97
2023-01-26T11:13:22.372Z,8.73
2023-01-26T11:16:04.940Z,8.27
2023-01-26T11:18:58.190Z,7.53
2023-01-26T11:22:02.341Z,7.05
2023-01-26T11:24:57.684Z,7.93
2023-01-26T11:27:46.044Z,6.97
2023-01-26T11:30:32.909Z,7.97
2023-01-26T11:33:37.766Z,8.38
2023-01-26T11:36:42.311Z,7.57
2023-01-26T11:39:26.653Z,8.02
2023-01-26T11:42:22.356Z,8.68
2023-01-26T11:45:18.216Z,7.88
2023-01-26T11:48:05.894Z,7.28
2023-01-26T11:50:35.924Z,7.72
2023-01-26T11:53:47.139Z,12.50
2023-01-26T11:56:55.209Z,12.55
2023-01-26T11:59:27.255Z,16.38
2023-01-26T12:02:13.738Z,9.25
2023-01-26T12:04:49.151Z,8.93
2023-01-26T12:07:26.314Z,8.05
2023-01-26T12:09:55.127Z,9.18
2023-01-26T12:12:40.371Z,8.38
2023-01-26T12:15:19.057Z,8.95
2023-01-26T12:18:17.138Z,8.82
2023-01-26T12:20:57.368Z,10.13
2023-01-26T12:23:44.906Z,8.90
2023-01-26T12:26:16.974Z,7.93
2023-01-26T12:29:09.838Z,7.72
2023-01-26T12:31:58.961Z,7.25
2023-01-26T12:34:32.673Z,8.25
2023-01-26T12:37:27.464Z,8.02
2023-01-26T12:40:01.875Z,8.32
2023-01-26T12:42:45.163Z,8.52
2023-01-26T12:45:35.930Z,9.45
2023-01-26T12:48:18.368Z,22.20
2023-01-26T12:50:53.693Z,7.72
2023-01-26T12:53:37.873Z,10.55
2023-01-26T12:56:26.011Z,10.35
2023-01-26T12:58:56.364Z,10.57
2023-01-26T13:01:27.913Z,10.35
2023-01-26T13:04:04.267Z,9.98
2023-01-26T13:06:32.308Z,10.00
2023-01-26T13:09:24.923Z,8.27
2023-01-26T13:11:58.975Z,8.85
2023-01-26T13:14:59.442Z,9.43
2023-01-26T13:17:52.051Z,15.77
2023-01-26T13:20:42.606Z,10.48
2023-01-26T13:23:41.609Z,9.80
2023-01-26T13:26:21.630Z,8.93
2023-01-26T13:28:51.060Z,10.15
2023-01-26T13:31:33.136Z,10.40
2023-01-26T13:34:08.586Z,8.73
2023-01-26T13:36:41.901Z,8.45
2023-01-26T13:39:31.348Z,9.55
2023-01-26T13:41:59.361Z,8.85
2023-01-26T13:44:37.493Z,8.18
2023-01-26T13:47:11.590Z,8.65
2023-01-26T13:49:42.493Z,9.75
2023-01-26T13:52:25.780Z,8.43
2023-01-26T13:55:00.284Z,8.65
2023-01-26T14:00:01.596Z,8.55
2023-01-26T14:02:33.775Z,8.05
2023-01-26T14:05:08.063Z,9.48
2023-01-26T14:07:46.582Z,8.90
2023-01-26T14:10:22.273Z,8.10
2023-01-26T14:12:55.864Z,9.80
2023-01-26T14:15:29.693Z,8.88
2023-01-26T14:17:59.901Z,9.48
2023-01-26T14:20:32.163Z,9.18
2023-01-26T14:23:15.501Z,9.90
2023-01-26T14:25:56.324Z,9.32
2023-01-26T14:28:36.969Z,9.02
2023-01-26T14:31:17.010Z,8.95
2023-01-26T14:33:45.483Z,14.43
2023-01-26T14:36:18.289Z,9.38
2023-01-26T14:38:50.472Z,10.48
2023-01-26T14:41:22.738Z,9.25
2023-01-26T14:43:55.359Z,8.95
2023-01-26T14:46:29.903Z,9.63
2023-01-26T14:49:12.413Z,11.82
2023-01-26T14:51:44.557Z,8.52
2023-01-26T14:54:44.041Z,36.22
2023-01-26T14:57:17.952Z,16.30
2023-01-26T14:59:50.197Z,9.75
2023-01-26T15:02:42.564Z,8.93
2023-01-26T15:05:21.007Z,8.68
2023-01-26T15:08:02.236Z,9.02
2023-01-26T15:11:16.720Z,9.27
2023-01-26T15:13:46.281Z,9.10
2023-01-26T15:16:21.472Z,12.13
2023-01-26T15:19:08.005Z,11.48
2023-01-26T15:21:40.835Z,9.60
2023-01-26T15:24:14.893Z,10.55
2023-01-26T15:26:43.327Z,10.13
2023-01-26T15:29:31.803Z,9.35
2023-01-26T15:32:00.544Z,8.43
2023-01-26T15:34:42.116Z,9.20
2023-01-26T15:37:39.552Z,9.60
2023-01-26T15:40:08.027Z,9.57
2023-01-26T15:42:35.352Z,8.80
2023-01-26T15:47:31.006Z,7.05
2023-01-26T15:49:59.309Z,8.10
2023-01-26T15:52:30.537Z,8.43
2023-01-26T15:54:58.950Z,8.30
2023-01-26T15:57:26.391Z,13.05
2023-01-26T16:02:21.756Z,7.85
2023-01-26T16:04:49.834Z,7.63
2023-01-26T16:09:45.882Z,7.25
2023-01-26T16:12:31.254Z,8.07
2023-01-26T16:15:00.037Z,9.75
2023-01-26T16:17:28.329Z,8.75
2023-01-26T16:19:55.592Z,8.68
2023-01-26T16:24:52.062Z,6.78
2023-01-26T16:27:21.832Z,7.10
2023-01-26T16:29:49.620Z,11.38
2023-01-26T16:34:55.554Z,7.90
2023-01-26T16:37:24.708Z,13.50
2023-01-26T16:39:52.945Z,23.73
2023-01-26T16:44:50.360Z,8.32
2023-01-26T16:47:18.220Z,10.95
2023-01-26T16:49:45.721Z,11.90
2023-01-26T16:52:14.463Z,10.23
2023-01-26T16:54:41.892Z,10.73
2023-01-26T16:57:11.634Z,12.95
2023-01-26T16:59:40.072Z,8.93
2023-01-26T17:02:26.582Z,10.15
2023-01-26T17:04:54.298Z,9.60
2023-01-26T17:07:22.504Z,12.25
2023-01-26T17:09:51.211Z,12.98
2023-01-26T17:12:18.826Z,11.05
2023-01-26T17:17:14.079Z,13.07
2023-01-26T17:22:09.181Z,9.30
2023-01-26T17:24:36.980Z,9.05
2023-01-26T17:27:05.362Z,8.35
2023-01-26T17:29:33.977Z,12.93
2023-01-26T17:32:02.509Z,14.60
2023-01-26T17:34:31.016Z,10.52
2023-01-26T17:37:00.292Z,8.98
2023-01-26T17:39:29.328Z,16.17
2023-01-26T17:41:57.299Z,11.30
2023-01-26T17:44:24.855Z,9.35
2023-01-26T17:46:52.811Z,7.72
2023-01-26T17:49:21.544Z,8.73
2023-01-26T17:51:49.240Z,7.45
2023-01-26T17:56:45.669Z,7.57
2023-01-26T17:59:13.055Z,8.68
2023-01-26T18:04:09.554Z,11.40
2023-01-26T18:06:39.337Z,10.88
2023-01-26T18:09:06.987Z,9.75
2023-01-26T18:14:03.096Z,8.48
2023-01-26T18:16:31.232Z,21.58
2023-01-26T18:19:01.296Z,12.63
2023-01-26T18:21:30.264Z,13.95
2023-01-26T18:24:01.890Z,14.25
2023-01-26T18:26:33.517Z,10.82
2023-01-26T18:29:01.690Z,10.57
2023-01-26T18:34:00.974Z,9.05
2023-01-26T18:36:29.804Z,7.55
2023-01-26T18:39:02.204Z,9.13
2023-01-26T18:41:33.385Z,8.70
2023-01-26T18:44:05.600Z,8.20
2023-01-26T18:46:33.208Z,9.30
2023-01-26T18:49:03.402Z,11.43
2023-01-26T18:51:34.608Z,11.02
2023-01-26T18:54:04.167Z,10.18
2023-01-26T18:56:34.342Z,8.35
2023-01-26T18:59:01.947Z,9.65
2023-01-26T19:01:29.450Z,8.75
2023-01-26T19:03:58.624Z,10.90
2023-01-26T19:06:26.635Z,8.40
2023-01-26T19:09:00.851Z,9.88
2023-01-26T19:11:31.315Z,16.05
2023-01-26T19:13:59.826Z,10.32
2023-01-26T19:16:28.102Z,9.45
2023-01-26T19:18:56.593Z,9.90
2023-01-26T19:21:27.769Z,10.68
2023-01-26T19:23:58.452Z,13.55
2023-01-26T19:26:29.325Z,18.17
2023-01-26T19:28:57.718Z,10.13
2023-01-26T19:31:26.818Z,9.70
2023-01-26T19:33:59.827Z,9.23
2023-01-26T19:36:30.225Z,11.40
2023-01-26T19:38:58.595Z,10.65
2023-01-26T19:41:25.964Z,10.02
2023-01-26T19:43:54.723Z,11.63
2023-01-26T19:46:23.695Z,11.73
2023-01-26T19:48:52.189Z,10.93
2023-01-26T19:51:25.159Z,10.10
2023-01-26T19:53:59.542Z,10.55
2023-01-26T19:56:29.989Z,10.30
2023-01-26T19:59:00.786Z,11.75
2023-01-26T20:01:31.000Z,9.98
2023-01-26T20:04:09.542Z,10.38
2023-01-26T20:06:37.694Z,11.02
2023-01-26T20:09:07.537Z,11.27
2023-01-26T20:11:38.290Z,11.27
2023-01-26T20:14:10.974Z,12.90
2023-01-26T20:16:39.636Z,12.25
2023-01-26T20:19:07.131Z,12.88
2023-01-26T20:21:35.622Z,10.50
2023-01-26T20:24:05.923Z,11.23
2023-01-26T20:26:35.172Z,11.50
2023-01-26T20:29:03.432Z,12.05
2023-01-26T20:31:32.704Z,12.07
2023-01-26T20:34:01.697Z,11.57
2023-01-26T20:36:29.784Z,13.25
2023-01-26T20:38:57.985Z,13.05
2023-01-26T20:41:31.473Z,13.55
2023-01-26T20:44:02.855Z,13.32
2023-01-26T20:46:42.612Z,12.88
2023-01-26T20:49:14.023Z,15.80
2023-01-26T20:51:43.304Z,14.75
2023-01-26T20:54:13.285Z,14.00
2023-01-26T20:56:41.298Z,13.23
2023-01-26T20:59:10.592Z,14.05
2023-01-26T21:01:38.663Z,13.40
2023-01-26T21:04:06.970Z,13.40
2023-01-26T21:06:38.029Z,16.42
2023-01-26T21:09:05.991Z,13.65
2023-01-26T21:11:35.096Z,16.20
2023-01-26T21:14:03.731Z,16.17
2023-01-26T21:16:32.363Z,14.10
2023-01-26T21:19:02.137Z,16.75
2023-01-26T21:21:31.182Z,15.70
2023-01-26T21:24:00.062Z,17.63
2023-01-26T21:26:28.607Z,13.65
2023-01-26T21:28:59.931Z,14.05
2023-01-26T21:31:30.304Z,14.95
2023-01-26T21:33:59.541Z,15.38
2023-01-26T21:36:30.776Z,15.05
2023-01-26T21:39:00.388Z,14.98
2023-01-26T21:41:50.141Z,15.98
2023-01-26T21:44:20.906Z,16.67
2023-01-26T21:46:51.239Z,17.35
2023-01-26T21:49:19.928Z,17.25
2023-01-26T21:52:06.441Z,18.27
2023-01-26T21:54:35.961Z,16.27
2023-01-26T21:57:26.306Z,15.40
2023-01-26T21:59:55.949Z,15.88
2023-01-26T22:02:23.928Z,16.08
2023-01-26T22:04:51.925Z,15.75
2023-01-26T22:07:19.461Z,18.08
2023-01-26T22:09:46.956Z,15.70
2023-01-26T22:12:14.636Z,16.77
2023-01-26T22:14:42.307Z,16.38
2023-01-26T22:17:10.128Z,16.35
2023-01-26T22:19:37.575Z,19.10
2023-01-26T22:22:05.287Z,15.52
2023-01-26T22:24:33.514Z,19.00
2023-01-26T22:27:01.860Z,18.35
2023-01-26T22:29:30.066Z,14.60
2023-01-26T22:31:58.058Z,16.42
2023-01-26T22:34:25.716Z,15.90
2023-01-26T22:36:54.420Z,17.85
2023-01-26T22:39:22.604Z,17.83
2023-01-26T22:41:50.782Z,16.83
2023-01-26T22:44:19.231Z,19.35
2023-01-26T22:46:49.386Z,14.80
2023-01-26T22:49:17.610Z,16.98
2023-01-26T22:51:45.542Z,16.20
2023-01-26T22:54:13.175Z,17.02
2023-01-26T22:56:41.140Z,18.00
2023-01-26T22:59:09.307Z,17.88
2023-01-26T23:01:37.170Z,16.13
2023-01-26T23:04:04.935Z,17.25
2023-01-26T23:06:33.931Z,19.30
2023-01-26T23:09:05.296Z,16.48
2023-01-26T23:11:32.798Z,19.73
2023-01-26T23:16:29.352Z,16.90
2023-01-26T23:18:58.823Z,19.02
2023-01-26T23:21:29.780Z,16.48
2023-01-26T23:23:58.103Z,18.02
2023-01-26T23:26:26.378Z,17.70
2023-01-26T23:28:53.920Z,19.95
2023-01-26T23:31:21.861Z,20.65
2023-01-26T23:33:49.826Z,22.35
2023-01-26T23:36:18.833Z,17.40
2023-01-26T23:38:47.267Z,18.08
2023-01-26T23:41:15.364Z,18.67
2023-01-26T23:43:45.124Z,21.02
2023-01-26T23:46:13.159Z,18.55
2023-01-26T23:48:41.815Z,16.95
2023-01-26T23:51:11.207Z,18.77
2023-01-26T23:53:39.158Z,21.27
2023-01-26T23:56:10.014Z,21.00
2023-01-26T23:58:37.770Z,18.00
